Weather History for Grayling, MI

Change the Weather History Date:

Friday, April 19, 2013

  Actual Average (KHTL) Record (KHTL)
Temperature  
Mean Temperature 42 °F 44 °F  
Max Temperature 55 °F 56 °F 81 °F (1948)
Min Temperature 28 °F 33 °F 2 °F (1918)
Degree Days  
Heating Degree Days 24 21  
Month to date heating degree days 473  
Since 1 July heating degree days 7458  
Cooling Degree Days 0 0  
Month to date cooling degree days 0  
Year to date cooling degree days 0  
Moisture  
Dew Point 33 °F    
Average Humidity 78    
Maximum Humidity 100    
Minimum Humidity 59    
Precipitation  
Precipitation 0.00 in 0.08 in 1.30 in (1925)
Month to date precipitation 1.62  
Year to date precipitation 6.18  
Snow  
Snow 0.00 in 0.10 in 4.00 in (2011)
Month to date snowfall 3.2  
Since 1 July snowfall 66.0  
Snow Depth -    
Sea Level Pressure  
Sea Level Pressure 29.37 in    
Wind  
Wind Speed 13 mph (SW)    
Max Wind Speed 24 mph    
Max Gust Speed 39 mph    
Visibility 9 miles    
Events Fog , Rain , Snow    
T = Trace of Precipitation, MM = Missing Value Source: NWS Daily Summary

Daily Weather History Graph

Daily Weather History Graph

Search for Another Location

Airport:

Trip Planner

Search our weather history database for the weather conditions in past years. The results will help you decide how hot, cold, wet, or windy it might be!

Date:

Astronomy

Apr. 19, 2013 Rise Set
Actual Time 6:47 AM EDT 8:29 PM EDT
Civil Twilight 6:16 AM EDT 9:00 PM EDT
Nautical Twilight 5:39 AM EDT 9:37 PM EDT
Astronomical Twilight 4:58 AM EDT 10:18 PM EDT
Moon 1:58 PM EDT (4/19) 3:18 AM EDT (4/19)
Length of Visible Light 14h 43m
Length of Day
13h 41m
First Quarter, 61% of the Moon is Illuminated
Apr 19
First Quarter
Apr 25
Full
May 2
Last Quarter
May 9
New
May 18
First Quarter

Hourly Weather History & Observations

Time (EDT) Temp. Windchill Dew Point Humidity Pressure Visibility Wind Dir Wind Speed Gust Speed Precip Events Conditions
12:15 AM 53.6 °F - 53.6 °F 100% 29.41 in 0.5 mi SE 9.2 mph - N/A Fog Fog
12:34 AM 53.6 °F - 53.6 °F 100% 29.38 in 2.0 mi ESE 8.1 mph - N/A   Overcast
12:55 AM 55.9 °F - 55.9 °F 100% 29.37 in 10.0 mi SSE 10.4 mph - N/A   Overcast
1:15 AM 55.9 °F - 55.9 °F 100% 29.37 in 10.0 mi SSE 10.4 mph - N/A   Overcast
1:34 AM 55.9 °F - 55.9 °F 100% 29.35 in 10.0 mi South 10.4 mph 19.6 mph N/A   Overcast
1:55 AM 55.9 °F - 55.9 °F 100% 29.34 in 10.0 mi South 11.5 mph 20.7 mph N/A   Overcast
2:15 AM 55.9 °F - 55.9 °F 100% 29.32 in 7.0 mi South 12.7 mph 23.0 mph N/A Rain Rain
2:34 AM 55.9 °F - 55.9 °F 100% 29.31 in 4.0 mi South 10.4 mph 16.1 mph N/A Rain Heavy Rain
2:55 AM 55.9 °F - 55.9 °F 100% 29.32 in 4.0 mi SSW 12.7 mph 25.3 mph N/A   Drizzle
3:15 AM 53.6 °F - 52.7 °F 97% 29.33 in 4.0 mi SSW 15.0 mph 23.0 mph N/A   Heavy Drizzle
3:34 AM 53.6 °F - 52.7 °F 97% 29.30 in 7.0 mi SSW 9.2 mph - N/A   Light Drizzle
3:55 AM 50.9 °F - 50.2 °F 97% 29.32 in 7.0 mi SSW 11.5 mph 18.4 mph N/A   Heavy Drizzle
4:14 AM 48.4 °F - 47.7 °F 97% 29.30 in 5.0 mi SW 11.5 mph 17.3 mph N/A   Drizzle
4:35 AM 46.0 °F 40.6 °F 45.1 °F 97% 29.31 in 3.0 mi SSW 11.5 mph 21.9 mph N/A Rain Light Rain
4:55 AM 44.1 °F 37.4 °F 43.0 °F 96% 29.31 in 4.0 mi SW 13.8 mph 20.7 mph N/A Rain Rain
5:14 AM 42.3 °F 37.3 °F 41.2 °F 96% 29.30 in 7.0 mi SSW 8.1 mph 20.7 mph N/A Rain Light Rain
5:35 AM 41.4 °F 35.7 °F 40.1 °F 95% 29.30 in 10.0 mi SW 9.2 mph 21.9 mph N/A   Overcast
5:55 AM 40.5 °F 32.5 °F 38.1 °F 91% 29.29 in 10.0 mi SW 15.0 mph 20.7 mph N/A Rain Light Rain
6:15 AM 39.4 °F 31.8 °F 37.0 °F 91% 29.30 in 10.0 mi SW 12.7 mph 19.6 mph N/A Rain Light Rain
6:55 AM 38.3 °F 31.9 °F 35.4 °F 89% 29.29 in 10.0 mi SW 9.2 mph 17.3 mph N/A   Overcast
7:14 AM 38.3 °F 31.4 °F 35.6 °F 90% 29.30 in 10.0 mi SW 10.4 mph - N/A Rain Light Rain
7:35 AM 38.3 °F 31.4 °F 35.2 °F 89% 29.29 in 10.0 mi SW 10.4 mph 17.3 mph N/A   Overcast
7:55 AM 37.0 °F 28.1 °F 33.8 °F 88% 29.28 in 10.0 mi SW 15.0 mph 21.9 mph N/A   Overcast
8:14 AM 36.5 °F 29.2 °F 33.6 °F 89% 29.28 in 10.0 mi SW 10.4 mph 16.1 mph N/A   Overcast
8:35 AM 35.8 °F 25.4 °F 32.0 °F 86% 29.28 in 10.0 mi SSW 18.4 mph 25.3 mph N/A   Overcast
8:55 AM 35.8 °F 27.8 °F 32.7 °F 89% 29.28 in 10.0 mi SW 11.5 mph 20.7 mph N/A   Overcast
9:15 AM 35.8 °F 26.5 °F 31.1 °F 83% 29.27 in 10.0 mi SW 15.0 mph 28.8 mph N/A   Overcast
9:35 AM 35.8 °F 27.3 °F 31.6 °F 85% 29.27 in 10.0 mi SW 12.7 mph 19.6 mph N/A   Overcast
9:54 AM 35.8 °F 26.1 °F 29.3 °F 77% 29.27 in 10.0 mi SW 16.1 mph 26.5 mph N/A   Overcast
10:15 AM 35.8 °F 27.8 °F 28.6 °F 75% 29.27 in 10.0 mi SW 11.5 mph 23.0 mph N/A   Overcast
10:54 AM 35.8 °F 27.3 °F 27.7 °F 72% 29.27 in 10.0 mi SW 12.7 mph 26.5 mph N/A   Overcast
11:15 AM 35.8 °F 26.1 °F 27.9 °F 73% 29.27 in 10.0 mi SSW 16.1 mph 29.9 mph N/A   Overcast
11:35 AM 35.8 °F 26.5 °F 27.3 °F 71% 29.28 in 10.0 mi SW 15.0 mph 31.1 mph N/A   Overcast
11:54 AM 35.8 °F 26.1 °F 27.3 °F 71% 29.28 in 10.0 mi SW 16.1 mph 28.8 mph N/A   Overcast
12:15 PM 36.5 °F 24.9 °F 26.8 °F 68% 29.27 in 10.0 mi SW 24.2 mph 31.1 mph N/A   Overcast
12:35 PM 37.9 °F 29.2 °F 28.4 °F 69% 29.28 in 10.0 mi SW 15.0 mph 25.3 mph N/A   Overcast
12:54 PM 38.3 °F 28.7 °F 27.5 °F 65% 29.28 in 10.0 mi SW 18.4 mph 32.2 mph N/A   Overcast
1:15 PM 36.9 °F 27.5 °F 26.6 °F 66% 29.28 in 10.0 mi SW 16.1 mph 33.4 mph N/A   Overcast
1:35 PM 38.3 °F 29.0 °F 26.6 °F 63% 29.27 in 10.0 mi SW 17.3 mph 27.6 mph N/A   Overcast
1:55 PM 38.3 °F 28.4 °F 26.2 °F 62% 29.27 in 10.0 mi SW 19.6 mph 28.8 mph N/A   Overcast
2:15 PM 39.4 °F 30.7 °F 27.1 °F 62% 29.27 in 10.0 mi WSW 16.1 mph 27.6 mph N/A   Overcast
2:35 PM 38.8 °F 30.0 °F 28.4 °F 66% 29.28 in 10.0 mi SW 16.1 mph 28.8 mph N/A   Unknown
2:55 PM 38.3 °F 29.3 °F 29.3 °F 70% 29.29 in 7.0 mi SW 16.1 mph 39.1 mph N/A   Overcast
3:15 PM 38.3 °F 29.0 °F 28.6 °F 68% 29.30 in 10.0 mi SW 17.3 mph 32.2 mph N/A   Overcast
3:35 PM 37.8 °F 28.3 °F 29.3 °F 72% 29.31 in 4.0 mi WSW 17.3 mph 28.8 mph N/A Snow Light Snow
3:55 PM 36.1 °F 26.9 °F 30.6 °F 80% 29.32 in 4.0 mi WSW 15.0 mph 28.8 mph N/A Snow Light Snow
4:15 PM 36.1 °F 26.5 °F 27.9 °F 72% 29.34 in 10.0 mi WSW 16.1 mph 35.7 mph N/A   Overcast
4:34 PM 35.8 °F 24.8 °F 27.0 °F 70% 29.36 in 10.0 mi WSW 20.7 mph 33.4 mph N/A   Overcast
4:55 PM 35.8 °F 27.3 °F 26.4 °F 69% 29.37 in 10.0 mi WSW 12.7 mph 26.5 mph N/A   Overcast
5:15 PM 35.8 °F 27.3 °F 25.9 °F 67% 29.38 in 10.0 mi WSW 12.7 mph 32.2 mph N/A   Overcast
5:34 PM 35.8 °F 25.7 °F 24.6 °F 64% 29.40 in 10.0 mi WSW 17.3 mph 27.6 mph N/A   Overcast
5:55 PM 35.8 °F 26.1 °F 23.9 °F 62% 29.41 in 10.0 mi WSW 16.1 mph 28.8 mph N/A   Overcast
6:15 PM 35.8 °F 25.7 °F 23.7 °F 62% 29.43 in 10.0 mi WSW 17.3 mph 26.5 mph N/A   Overcast
6:34 PM 35.8 °F 25.1 °F 22.6 °F 59% 29.44 in 10.0 mi WSW 19.6 mph 28.8 mph N/A   Overcast
6:55 PM 35.6 °F 24.5 °F 23.4 °F 61% 29.46 in 5.0 mi WSW 20.7 mph 31.1 mph N/A Snow Light Snow
7:15 PM 33.3 °F 23.2 °F 25.9 °F 74% 29.47 in 10.0 mi WSW 15.0 mph 21.9 mph N/A   Overcast
7:34 PM 33.3 °F 22.8 °F 26.8 °F 77% 29.48 in 2.0 mi West 16.1 mph 26.5 mph N/A Snow Light Snow
7:55 PM 32.9 °F 24.7 °F 26.8 °F 78% 29.49 in 10.0 mi WSW 10.4 mph 20.7 mph N/A   Overcast
8:15 PM 33.3 °F 25.7 °F 25.9 °F 74% 29.51 in 10.0 mi WSW 9.2 mph - N/A   Overcast
8:35 PM 33.3 °F 25.1 °F 20.1 °F 59% 29.52 in 10.0 mi WSW 10.4 mph 19.6 mph N/A   Overcast
8:55 PM 33.3 °F 23.7 °F 22.1 °F 64% 29.54 in 10.0 mi WNW 13.8 mph 25.3 mph N/A   Overcast
9:15 PM 33.3 °F 24.1 °F 22.8 °F 66% 29.56 in 10.0 mi West 12.7 mph 24.2 mph N/A Snow Light Snow
9:35 PM 31.1 °F 20.1 °F 21.9 °F 69% 29.57 in 10.0 mi WNW 16.1 mph 27.6 mph N/A   Overcast
9:55 PM 31.1 °F 19.7 °F 21.6 °F 68% 29.59 in 10.0 mi WNW 17.3 mph 21.9 mph N/A   Overcast
10:15 PM 30.0 °F 20.0 °F 19.6 °F 65% 29.60 in 10.0 mi West 12.7 mph 21.9 mph N/A Snow Light Snow
10:35 PM 29.1 °F 16.7 °F 18.5 °F 65% 29.61 in 7.0 mi West 18.4 mph 27.6 mph N/A Snow Light Snow
10:55 PM 28.8 °F 15.5 °F 18.5 °F 66% 29.62 in 10.0 mi WNW 20.7 mph 25.3 mph N/A Snow Light Snow
11:14 PM 28.4 °F 16.6 °F 16.5 °F 61% 29.63 in 10.0 mi West 16.1 mph 32.2 mph N/A   Overcast
11:35 PM 28.4 °F 16.6 °F 16.5 °F 61% 29.64 in 10.0 mi West 16.1 mph 24.2 mph N/A   Overcast
11:55 PM 28.4 °F 17.0 °F 16.7 °F 62% 29.65 in 10.0 mi WNW 15.0 mph 23.0 mph N/A   Overcast